Time;durP1;ratioP1;P1;durP2;ratioP2;P2;SDS_P1;SDS_P2;PMS_P1;PMS_P2;Temp;Humidity;BMP_temperature;BMP_pressure;BME280_temperature;BME280_humidity;BME280_pressure;Samples;Min_cycle;Max_cycle;Signal;HPM_P1;HPM_P2
2022/08/08 00:00:58;;;;;;;35.67;12.88;;;;;;;;;;5070820;28;20055;-64
2022/08/08 00:03:42;;;;;;;33.75;12.77;;;;;;;;;;5070669;28;20094;-63
2022/08/08 00:06:32;;;;;;;45.67;15.10;;;;;;;;;;5070381;28;20093;-62
2022/08/08 00:09:00;;;;;;;54.70;14.00;;;;;;;;;;5069844;28;20552;-64
2022/08/08 00:11:39;;;;;;;69.15;14.60;;;;;;;;;;5070572;28;20091;-63
2022/08/08 00:14:32;;;;;;;69.25;14.98;;;;;;;;;;5070633;28;20044;-63
2022/08/08 00:17:27;;;;;;;38.00;12.52;;;;;;;;;;5070865;28;20471;-63
2022/08/08 00:20:18;;;;;;;49.15;13.90;;;;;;;;;;5070739;28;20040;-63
2022/08/08 00:22:47;;;;;;;88.93;16.52;;;;;;;;;;5069796;28;20463;-63
2022/08/08 00:25:20;;;;;;;32.97;12.70;;;;;;;;;;5071073;28;20128;-63
2022/08/08 00:27:49;;;;;;;58.72;13.77;;;;;;;;;;5069730;28;20528;-63
2022/08/08 00:30:17;;;;;;;66.32;14.27;;;;;;;;;;5069035;28;20036;-63
2022/08/08 00:32:50;;;;;;;37.90;12.75;;;;;;;;;;5070292;28;20564;-65
2022/08/08 00:35:19;;;;;;;39.40;12.43;;;;;;;;;;5057089;28;20044;-64
2022/08/08 00:37:46;;;;;;;51.00;13.63;;;;;;;;;;5068909;28;20041;-65
2022/08/08 00:40:27;;;;;;;34.65;12.02;;;;;;;;;;5069249;28;20414;-65
2022/08/08 00:43:33;;;;;;;40.63;12.40;;;;;;;;;;5072820;28;20410;-68
2022/08/08 00:46:12;;;;;;;63.38;13.95;;;;;;;;;;5072554;28;20464;-67
2022/08/08 00:49:01;;;;;;;40.97;13.98;;;;;;;;;;5073029;28;20052;-68
2022/08/08 00:51:46;;;;;;;32.97;12.52;;;;;;;;;;5073700;28;20080;-65
2022/08/08 00:54:25;;;;;;;58.63;13.40;;;;;;;;;;5073737;28;20116;-65
2022/08/08 00:56:58;;;;;;;54.17;13.32;;;;;;;;;;5072616;28;20060;-65
2022/08/08 00:59:27;;;;;;;60.88;13.60;;;;;;;;;;5072386;28;20048;-66
2022/08/08 01:02:33;;;;;;;40.95;12.52;;;;;;;;;;5072844;28;20085;-66
2022/08/08 01:05:40;;;;;;;101.40;14.90;;;;;;;;;;5072201;28;20063;-65
2022/08/08 01:08:56;;;;;;;65.97;13.48;;;;;;;;;;5072308;28;20094;-64
2022/08/08 01:11:41;;;;;;;48.50;14.07;;;;;;;;;;5072295;28;20388;-65
2022/08/08 01:14:16;;;;;;;63.92;13.90;;;;;;;;;;5072175;28;20064;-65
2022/08/08 01:17:18;;;;;;;47.85;13.43;;;;;;;;;;5073622;28;20037;-64
2022/08/08 01:20:03;;;;;;;77.50;15.77;;;;;;;;;;5072116;28;20397;-64
2022/08/08 01:22:34;;;;;;;61.55;15.63;;;;;;;;;;5072539;28;20418;-63
2022/08/08 01:25:07;;;;;;;53.90;14.23;;;;;;;;;;5072781;28;20044;-64
2022/08/08 01:27:56;;;;;;;60.60;14.18;;;;;;;;;;5071500;28;20053;-64
2022/08/08 01:30:33;;;;;;;51.60;13.70;;;;;;;;;;5071864;28;20075;-64
2022/08/08 01:33:10;;;;;;;42.05;13.35;;;;;;;;;;5073131;28;20036;-65
2022/08/08 01:36:11;;;;;;;51.58;13.32;;;;;;;;;;5056887;28;20047;-65
2022/08/08 01:39:03;;;;;;;63.95;14.63;;;;;;;;;;5071798;28;20067;-64
2022/08/08 01:41:30;;;;;;;30.85;12.95;;;;;;;;;;5071838;28;20040;-65
2022/08/08 01:44:12;;;;;;;45.75;13.43;;;;;;;;;;5071317;28;20090;-65
2022/08/08 01:46:42;;;;;;;65.00;14.23;;;;;;;;;;5071458;28;20049;-64
2022/08/08 01:49:22;;;;;;;26.75;11.95;;;;;;;;;;5072106;28;20063;-64
2022/08/08 01:52:25;;;;;;;82.55;16.38;;;;;;;;;;5072793;28;20068;-63
2022/08/08 01:55:21;;;;;;;47.40;15.48;;;;;;;;;;5057774;28;20139;-64
2022/08/08 01:58:15;;;;;;;48.17;13.63;;;;;;;;;;5069908;28;20506;-65
2022/08/08 02:00:53;;;;;;;62.13;14.82;;;;;;;;;;5071284;28;20079;-65
2022/08/08 02:03:28;;;;;;;;;;;;;;;;;;5071698;28;20041;-65
2022/08/08 02:06:39;;;;;;;64.72;13.57;;;;;;;;;;5071174;28;19974;-66
2022/08/08 02:09:22;;;;;;;48.60;12.02;;;;;;;;;;5070934;28;20044;-65
2022/08/08 02:12:20;;;;;;;70.80;13.95;;;;;;;;;;5071955;28;20040;-64
2022/08/08 02:14:58;;;;;;;49.28;12.88;;;;;;;;;;5062012;28;20076;-66
2022/08/08 02:17:37;;;;;;;63.72;14.15;;;;;;;;;;5071304;28;20036;-65
2022/08/08 02:20:22;;;;;;;45.30;14.80;;;;;;;;;;5071260;28;20573;-65
2022/08/08 02:23:30;;;;;;;59.22;15.15;;;;;;;;;;5071170;28;20040;-66
2022/08/08 02:26:13;;;;;;;80.90;15.45;;;;;;;;;;5070902;28;20047;-65
2022/08/08 02:28:51;;;;;;;67.13;15.27;;;;;;;;;;5070721;28;20045;-65
2022/08/08 02:31:42;;;;;;;43.95;13.63;;;;;;;;;;5071429;28;20047;-65
2022/08/08 02:34:29;;;;;;;59.95;13.88;;;;;;;;;;5069555;28;20068;-65
2022/08/08 02:37:05;;;;;;;50.38;15.73;;;;;;;;;;5070258;28;20049;-69
2022/08/08 02:40:07;;;;;;;72.75;14.75;;;;;;;;;;5070495;28;20067;-69
2022/08/08 02:42:45;;;;;;;107.10;17.98;;;;;;;;;;5069969;28;20562;-65
2022/08/08 02:45:51;;;;;;;39.65;13.43;;;;;;;;;;5070701;28;20044;-64
2022/08/08 02:48:37;;;;;;;64.00;15.27;;;;;;;;;;5069959;28;20482;-66
2022/08/08 02:51:14;;;;;;;85.23;15.93;;;;;;;;;;5070192;28;20487;-66
2022/08/08 02:53:59;;;;;;;39.72;12.55;;;;;;;;;;5070471;28;20045;-67
2022/08/08 02:56:26;;;;;;;59.78;14.82;;;;;;;;;;5070223;28;20413;-67
2022/08/08 02:59:11;;;;;;;52.58;13.25;;;;;;;;;;5070240;28;20040;-65
2022/08/08 03:01:59;;;;;;;59.15;13.52;;;;;;;;;;5070546;28;20143;-65
2022/08/08 03:04:52;;;;;;;41.58;12.65;;;;;;;;;;5070197;28;20040;-65
2022/08/08 03:07:39;;;;;;;46.25;13.23;;;;;;;;;;5015882;28;20057;-65
2022/08/08 03:10:41;;;;;;;63.72;14.65;;;;;;;;;;5028620;28;20049;-65
2022/08/08 03:13:21;;;;;;;58.38;14.32;;;;;;;;;;5031528;28;20138;-65
2022/08/08 03:16:26;;;;;;;56.70;14.57;;;;;;;;;;5029379;28;20073;-66
2022/08/08 03:19:15;;;;;;;41.45;12.80;;;;;;;;;;5013297;28;20037;-65
2022/08/08 03:21:46;;;;;;;41.72;12.88;;;;;;;;;;5033272;28;20053;-65
2022/08/08 03:24:27;;;;;;;32.55;12.95;;;;;;;;;;5024932;28;20124;-66
2022/08/08 03:27:02;;;;;;;102.82;16.00;;;;;;;;;;5028632;28;20050;-65
2022/08/08 03:29:37;;;;;;;41.15;13.65;;;;;;;;;;5021041;28;20045;-64
2022/08/08 03:35:26;;;;;;;50.28;14.43;;;;;;;;;;5012025;28;20124;-66
2022/08/08 03:38:01;;;;;;;64.55;15.68;;;;;;;;;;5028701;28;20068;-67
2022/08/08 03:40:53;;;;;;;102.60;18.05;;;;;;;;;;5011981;28;20108;-67
2022/08/08 03:43:23;;;;;;;;;;;;;;;;;;5044695;28;20059;-63
2022/08/08 03:45:56;;;;;;;62.35;14.45;;;;;;;;;;5069402;28;19920;-63
2022/08/08 03:48:34;;;;;;;50.42;13.32;;;;;;;;;;5069334;28;20048;-64
2022/08/08 03:51:23;;;;;;;48.53;13.07;;;;;;;;;;5069324;28;20123;-65
2022/08/08 03:54:10;;;;;;;61.95;13.10;;;;;;;;;;5070501;28;20039;-65
2022/08/08 03:56:42;;;;;;;65.90;16.50;;;;;;;;;;5068705;28;20040;-63
2022/08/08 03:59:12;;;;;;;77.25;17.10;;;;;;;;;;5069125;28;20494;-65
2022/08/08 04:01:49;;;;;;;56.83;12.60;;;;;;;;;;5069537;28;20083;-65
2022/08/08 04:04:36;;;;;;;47.78;12.15;;;;;;;;;;5069562;28;20048;-63
2022/08/08 04:07:03;;;;;;;46.17;10.75;;;;;;;;;;5069937;28;20124;-63
2022/08/08 04:09:35;;;;;;;47.80;11.52;;;;;;;;;;5070627;28;20044;-63
2022/08/08 04:12:22;;;;;;;44.60;10.82;;;;;;;;;;5068770;28;20032;-65
2022/08/08 04:14:49;;;;;;;42.17;12.20;;;;;;;;;;5068784;28;20044;-65
2022/08/08 04:17:17;;;;;;;63.38;12.20;;;;;;;;;;5068892;28;20044;-63
2022/08/08 04:20:04;;;;;;;56.10;12.65;;;;;;;;;;5069254;28;20029;-64
2022/08/08 04:22:34;;;;;;;89.28;14.38;;;;;;;;;;5069235;28;20056;-64
2022/08/08 04:25:03;;;;;;;56.30;13.40;;;;;;;;;;5069221;28;20524;-64
2022/08/08 04:27:29;;;;;;;37.75;11.32;;;;;;;;;;5069901;28;20120;-63
2022/08/08 04:30:16;;;;;;;51.75;10.85;;;;;;;;;;5069649;28;20058;-63
2022/08/08 04:32:48;;;;;;;65.80;10.43;;;;;;;;;;5068883;28;20424;-65
2022/08/08 04:35:20;;;;;;;71.43;8.75;;;;;;;;;;5068323;28;20047;-62
2022/08/08 04:37:50;;;;;;;72.68;7.40;;;;;;;;;;5068960;28;20102;-66
2022/08/08 04:40:20;;;;;;;56.50;6.82;;;;;;;;;;5069379;28;20056;-64
2022/08/08 04:42:55;;;;;;;70.60;7.80;;;;;;;;;;5052541;28;20049;-66
2022/08/08 04:45:34;;;;;;;26.33;4.15;;;;;;;;;;5065834;28;20047;-66
2022/08/08 04:48:04;;;;;;;41.75;5.05;;;;;;;;;;5068841;28;20043;-70
2022/08/08 04:50:36;;;;;;;26.25;4.05;;;;;;;;;;5069042;28;20052;-69
2022/08/08 04:53:09;;;;;;;50.33;5.43;;;;;;;;;;5068795;28;20044;-65
2022/08/08 04:55:57;;;;;;;39.08;4.97;;;;;;;;;;5067768;28;20565;-67
2022/08/08 04:58:29;;;;;;;63.97;5.97;;;;;;;;;;5067220;28;20231;-65
2022/08/08 05:00:56;;;;;;;67.40;6.10;;;;;;;;;;5066674;28;20044;-66
2022/08/08 05:03:22;;;;;;;48.50;5.05;;;;;;;;;;5066738;28;20439;-67
2022/08/08 05:06:10;;;;;;;54.72;5.60;;;;;;;;;;5066894;28;20040;-66
2022/08/08 05:08:44;;;;;;;41.30;4.32;;;;;;;;;;5066925;28;20036;-66
2022/08/08 05:11:12;;;;;;;57.80;5.82;;;;;;;;;;5069334;28;20041;-65
2022/08/08 05:13:50;;;;;;;50.17;5.85;;;;;;;;;;5068069;28;20044;-65
2022/08/08 05:16:29;;;;;;;44.67;5.38;;;;;;;;;;5069211;28;20532;-66
2022/08/08 05:19:16;;;;;;;40.97;4.75;;;;;;;;;;5067636;28;20040;-65
2022/08/08 05:22:05;;;;;;;34.85;4.38;;;;;;;;;;5055318;28;20036;-65
2022/08/08 05:24:33;;;;;;;47.60;4.78;;;;;;;;;;5052338;28;20103;-65
2022/08/08 05:27:03;;;;;;;32.78;3.97;;;;;;;;;;5060298;28;20106;-66
2022/08/08 05:29:30;;;;;;;28.05;4.15;;;;;;;;;;5071859;28;20041;-66
2022/08/08 05:32:03;;;;;;;74.28;6.95;;;;;;;;;;5072100;28;20033;-66
2022/08/08 05:34:33;;;;;;;58.15;5.75;;;;;;;;;;5072663;28;20063;-65
2022/08/08 05:37:03;;;;;;;43.38;5.40;;;;;;;;;;5072202;28;20564;-64
2022/08/08 05:39:42;;;;;;;30.10;3.70;;;;;;;;;;5073219;28;20033;-65
2022/08/08 05:42:10;;;;;;;21.92;3.45;;;;;;;;;;5072520;28;20046;-64
2022/08/08 05:44:40;;;;;;;64.47;5.78;;;;;;;;;;5071274;28;20037;-65
2022/08/08 05:47:12;;;;;;;44.22;3.75;;;;;;;;;;5071914;28;20040;-65
2022/08/08 05:49:41;;;;;;;57.97;5.20;;;;;;;;;;5071947;28;20099;-65
2022/08/08 05:52:20;;;;;;;45.80;4.60;;;;;;;;;;5072555;28;20048;-64
2022/08/08 05:54:58;;;;;;;46.58;4.32;;;;;;;;;;5071343;28;20063;-68
2022/08/08 05:57:37;;;;;;;25.48;3.28;;;;;;;;;;5071134;28;20582;-68
2022/08/08 06:00:27;;;;;;;43.75;4.40;;;;;;;;;;5071209;28;20406;-67
2022/08/08 06:03:11;;;;;;;64.78;5.38;;;;;;;;;;5071429;28;20040;-66
2022/08/08 06:05:52;;;;;;;32.60;3.75;;;;;;;;;;5071334;28;20071;-67
2022/08/08 06:08:25;;;;;;;37.83;3.90;;;;;;;;;;5071327;28;20072;-66
2022/08/08 06:11:05;;;;;;;54.08;5.68;;;;;;;;;;5070879;28;20566;-67
2022/08/08 06:13:34;;;;;;;31.45;3.67;;;;;;;;;;5071216;28;20072;-66
2022/08/08 06:16:15;;;;;;;56.03;5.25;;;;;;;;;;5069649;28;20506;-66
2022/08/08 06:19:09;;;;;;;31.92;4.13;;;;;;;;;;5072348;28;20055;-66
2022/08/08 06:21:47;;;;;;;14.02;2.97;;;;;;;;;;5071718;28;20048;-67
2022/08/08 06:24:40;;;;;;;50.08;4.95;;;;;;;;;;5070485;28;20106;-65
2022/08/08 06:27:24;;;;;;;38.33;4.28;;;;;;;;;;5065434;28;20590;-65
2022/08/08 06:30:05;;;;;;;88.78;7.28;;;;;;;;;;5070397;28;20051;-64
2022/08/08 06:32:48;;;;;;;16.38;2.88;;;;;;;;;;5071053;28;20131;-65
2022/08/08 06:35:20;;;;;;;27.48;3.58;;;;;;;;;;5070602;28;20048;-67
2022/08/08 06:38:08;;;;;;;22.73;3.33;;;;;;;;;;5070657;28;20124;-67
2022/08/08 06:40:43;;;;;;;53.08;5.38;;;;;;;;;;5069355;28;20135;-68
2022/08/08 06:43:20;;;;;;;27.35;3.42;;;;;;;;;;5071050;28;20055;-65
2022/08/08 06:46:02;;;;;;;50.45;4.88;;;;;;;;;;5067604;28;20076;-65
2022/08/08 06:48:28;;;;;;;43.22;4.57;;;;;;;;;;5067292;28;20064;-66
2022/08/08 06:50:58;;;;;;;47.72;4.72;;;;;;;;;;5070202;28;20048;-65
2022/08/08 06:53:26;;;;;;;80.72;7.20;;;;;;;;;;5069933;28;20037;-66
2022/08/08 06:56:08;;;;;;;96.15;7.72;;;;;;;;;;5069818;28;20082;-66
2022/08/08 06:58:35;;;;;;;33.63;3.95;;;;;;;;;;5054048;28;20047;-66
2022/08/08 07:01:07;;;;;;;22.33;3.40;;;;;;;;;;5070813;28;20048;-66
2022/08/08 07:04:00;;;;;;;51.42;5.07;;;;;;;;;;5070335;28;20131;-66
2022/08/08 07:07:07;;;;;;;46.95;4.57;;;;;;;;;;5069750;28;20127;-66
2022/08/08 07:09:40;;;;;;;41.70;5.20;;;;;;;;;;5069672;28;20058;-66
2022/08/08 07:12:33;;;;;;;279.92;19.05;;;;;;;;;;5069640;28;20048;-66
2022/08/08 07:15:03;;;;;;;72.50;5.95;;;;;;;;;;5069602;28;20481;-66
2022/08/08 07:17:45;;;;;;;50.05;4.70;;;;;;;;;;5069860;28;20395;-66
2022/08/08 07:20:41;;;;;;;33.13;3.38;;;;;;;;;;5070285;28;20449;-66
2022/08/08 07:23:20;;;;;;;17.30;2.92;;;;;;;;;;5069698;28;20044;-65
2022/08/08 07:25:51;;;;;;;32.80;3.67;;;;;;;;;;5069756;28;20051;-64
2022/08/08 07:28:22;;;;;;;19.45;3.28;;;;;;;;;;5070004;28;20048;-61
2022/08/08 07:30:58;;;;;;;61.55;4.80;;;;;;;;;;5069294;28;20059;-60
2022/08/08 07:33:26;;;;;;;33.10;3.47;;;;;;;;;;5069464;28;20046;-60
2022/08/08 07:36:06;;;;;;;50.58;4.70;;;;;;;;;;5068910;28;20056;-60
2022/08/08 07:38:34;;;;;;;47.08;4.22;;;;;;;;;;5069430;28;20053;-60
2022/08/08 07:41:07;;;;;;;29.65;3.35;;;;;;;;;;5054087;28;20041;-60
2022/08/08 07:43:49;;;;;;;;;;;;;;;;;;5067717;28;20048;-60
2022/08/08 07:46:18;;;;;;;27.50;3.55;;;;;;;;;;5070059;28;19920;-60
2022/08/08 07:49:02;;;;;;;35.58;3.65;;;;;;;;;;5069478;28;20056;-60
2022/08/08 07:51:31;;;;;;;28.85;3.00;;;;;;;;;;5070192;28;20066;-60
2022/08/08 07:54:37;;;;;;;90.63;6.60;;;;;;;;;;5070970;28;20042;-60
2022/08/08 07:57:19;;;;;;;71.72;5.78;;;;;;;;;;5061906;28;20040;-60
2022/08/08 07:59:54;;;;;;;60.17;5.22;;;;;;;;;;5068878;28;20175;-60
2022/08/08 08:02:22;;;;;;;67.90;5.27;;;;;;;;;;5069110;28;20051;-61
2022/08/08 08:05:10;;;;;;;45.15;4.18;;;;;;;;;;5068054;28;20068;-61
2022/08/08 08:07:41;;;;;;;73.45;5.68;;;;;;;;;;5065496;28;20047;-60
2022/08/08 08:10:14;;;;;;;29.42;3.63;;;;;;;;;;5069175;28;20048;-61
2022/08/08 08:12:44;;;;;;;12.23;2.20;;;;;;;;;;5068843;28;20036;-60
2022/08/08 08:15:15;;;;;;;26.50;2.90;;;;;;;;;;5068714;28;20067;-61
2022/08/08 08:17:44;;;;;;;34.75;3.42;;;;;;;;;;5069435;28;20041;-61
2022/08/08 08:20:20;;;;;;;70.55;5.65;;;;;;;;;;5068052;28;20407;-61
2022/08/08 08:22:56;;;;;;;67.85;5.75;;;;;;;;;;5068497;28;20041;-61
2022/08/08 08:25:22;;;;;;;25.33;2.90;;;;;;;;;;5070713;28;20158;-60
2022/08/08 08:28:10;;;;;;;25.70;3.08;;;;;;;;;;5068301;28;20425;-61
2022/08/08 08:30:49;;;;;;;47.42;4.30;;;;;;;;;;5068433;28;20044;-61
2022/08/08 08:33:16;;;;;;;30.15;2.97;;;;;;;;;;5068665;28;20048;-61
2022/08/08 08:35:46;;;;;;;77.97;4.93;;;;;;;;;;5067847;28;20060;-60
2022/08/08 08:38:33;;;;;;;48.33;4.03;;;;;;;;;;5068398;28;20045;-61
2022/08/08 08:41:11;;;;;;;25.33;2.85;;;;;;;;;;5068651;28;20040;-61
2022/08/08 08:43:45;;;;;;;54.03;4.40;;;;;;;;;;5068310;28;20048;-60
2022/08/08 08:46:13;;;;;;;13.73;2.20;;;;;;;;;;5069183;28;20044;-61
2022/08/08 08:48:45;;;;;;;49.88;4.53;;;;;;;;;;5068140;28;20040;-60
2022/08/08 08:51:17;;;;;;;30.98;3.38;;;;;;;;;;5068119;28;20045;-60
2022/08/08 08:53:48;;;;;;;44.75;3.80;;;;;;;;;;5067998;28;20525;-61
2022/08/08 08:56:27;;;;;;;;;;;;;;;;;;5068856;28;20076;-60
2022/08/08 08:59:00;;;;;;;62.17;4.93;;;;;;;;;;5067993;28;20628;-60
2022/08/08 09:01:34;;;;;;;15.80;2.47;;;;;;;;;;5069220;28;20049;-61
2022/08/08 09:04:06;;;;;;;41.63;3.58;;;;;;;;;;5070941;28;20047;-60
2022/08/08 09:06:57;;;;;;;39.47;3.75;;;;;;;;;;5071607;28;20040;-60
2022/08/08 09:09:25;;;;;;;28.35;3.60;;;;;;;;;;5071909;28;20037;-60
2022/08/08 09:12:21;;;;;;;31.90;3.17;;;;;;;;;;5071665;28;20040;-60
2022/08/08 09:14:50;;;;;;;43.22;3.97;;;;;;;;;;5072326;28;20049;-60
2022/08/08 09:17:20;;;;;;;36.38;3.40;;;;;;;;;;5071946;28;20033;-60
2022/08/08 09:20:08;;;;;;;31.80;3.45;;;;;;;;;;5071443;28;20044;-61
2022/08/08 09:22:56;;;;;;;49.83;4.20;;;;;;;;;;5083974;28;20041;-60
2022/08/08 09:25:24;;;;;;;82.10;6.13;;;;;;;;;;5072303;28;20048;-60
2022/08/08 09:28:11;;;;;;;31.90;3.42;;;;;;;;;;5071734;28;20151;-60
2022/08/08 09:31:02;;;;;;;28.60;3.30;;;;;;;;;;5071798;28;20146;-60
2022/08/08 09:33:43;;;;;;;32.45;3.65;;;;;;;;;;5071283;28;20044;-60
2022/08/08 09:36:32;;;;;;;45.15;4.22;;;;;;;;;;5070738;28;20494;-60
2022/08/08 09:39:02;;;;;;;37.15;3.28;;;;;;;;;;5072852;28;20041;-62
2022/08/08 09:41:41;;;;;;;72.60;6.00;;;;;;;;;;5071447;28;20456;-60
2022/08/08 09:44:30;;;;;;;57.28;5.22;;;;;;;;;;5072735;28;20039;-61
2022/08/08 09:47:04;;;;;;;83.87;6.37;;;;;;;;;;5072878;28;20071;-61
2022/08/08 09:49:50;;;;;;;103.90;7.50;;;;;;;;;;5072498;28;20044;-60
2022/08/08 09:52:21;;;;;;;23.10;3.05;;;;;;;;;;5073450;28;20051;-60
2022/08/08 09:55:09;;;;;;;48.50;4.70;;;;;;;;;;5072873;28;20045;-61
2022/08/08 09:58:05;;;;;;;26.45;3.83;;;;;;;;;;5072176;28;20058;-60
2022/08/08 10:00:35;;;;;;;39.60;4.20;;;;;;;;;;5072065;28;20850;-61
2022/08/08 10:03:23;;;;;;;40.90;4.53;;;;;;;;;;5071971;28;20120;-60
2022/08/08 10:05:50;;;;;;;56.97;5.25;;;;;;;;;;5070815;28;20427;-61
2022/08/08 10:08:17;;;;;;;19.48;3.03;;;;;;;;;;5071067;28;20047;-61
2022/08/08 10:10:43;;;;;;;77.22;6.43;;;;;;;;;;5072326;28;20418;-61
2022/08/08 10:13:23;;;;;;;99.95;9.18;;;;;;;;;;5071103;28;20064;-61
2022/08/08 10:16:01;;;;;;;47.67;4.50;;;;;;;;;;5071914;28;20114;-61
2022/08/08 10:18:32;;;;;;;174.02;11.20;;;;;;;;;;5071929;28;20037;-61
2022/08/08 10:21:08;;;;;;;39.20;3.78;;;;;;;;;;5071573;28;20121;-60
2022/08/08 10:24:01;;;;;;;30.90;3.08;;;;;;;;;;5072214;28;20048;-60
2022/08/08 10:26:35;;;;;;;58.17;4.30;;;;;;;;;;5071880;28;20090;-61
2022/08/08 10:29:32;;;;;;;29.48;2.45;;;;;;;;;;5071997;28;20036;-60
2022/08/08 10:32:30;;;;;;;19.02;2.63;;;;;;;;;;5071592;28;20068;-60
2022/08/08 10:35:01;;;;;;;83.93;5.60;;;;;;;;;;5071063;28;20405;-60
2022/08/08 10:37:32;;;;;;;29.92;2.70;;;;;;;;;;5072601;28;20044;-60
2022/08/08 10:40:13;;;;;;;48.00;3.83;;;;;;;;;;5071676;28;20075;-60
2022/08/08 10:42:43;;;;;;;24.45;2.08;;;;;;;;;;5071390;28;20098;-60
2022/08/08 10:45:10;;;;;;;26.40;2.33;;;;;;;;;;5071559;28;20452;-60
2022/08/08 10:47:42;;;;;;;33.80;2.85;;;;;;;;;;5071747;28;20043;-60
2022/08/08 10:50:19;;;;;;;50.00;3.78;;;;;;;;;;5071243;28;20539;-60
2022/08/08 10:52:49;;;;;;;82.57;5.68;;;;;;;;;;5070995;28;20146;-60
2022/08/08 10:55:18;;;;;;;30.75;2.70;;;;;;;;;;5072066;28;20063;-60
2022/08/08 10:58:05;;;;;;;42.53;3.45;;;;;;;;;;5040236;28;20147;-60
2022/08/08 11:00:33;;;;;;;58.58;4.43;;;;;;;;;;5066232;28;20499;-60
2022/08/08 11:03:18;;;;;;;46.63;3.28;;;;;;;;;;5071261;28;20041;-60
2022/08/08 11:06:05;;;;;;;31.95;2.53;;;;;;;;;;5070992;28;20127;-60
2022/08/08 11:08:40;;;;;;;34.25;2.63;;;;;;;;;;5071169;28;20052;-60
2022/08/08 11:11:19;;;;;;;66.57;4.50;;;;;;;;;;5071500;28;20465;-61
2022/08/08 11:14:06;;;;;;;54.13;3.95;;;;;;;;;;5071098;28;20068;-60
2022/08/08 11:16:41;;;;;;;25.23;2.42;;;;;;;;;;5071853;28;20044;-59
2022/08/08 11:19:12;;;;;;;74.70;5.10;;;;;;;;;;5070269;28;20302;-60
2022/08/08 11:21:45;;;;;;;37.90;3.47;;;;;;;;;;5070976;28;20052;-60
2022/08/08 11:24:24;;;;;;;43.33;3.40;;;;;;;;;;5070368;28;20115;-60
2022/08/08 11:26:50;;;;;;;95.15;6.53;;;;;;;;;;5068629;28;20055;-60
2022/08/08 11:29:22;;;;;;;29.10;2.40;;;;;;;;;;5070605;28;20040;-60
2022/08/08 11:32:08;;;;;;;26.52;2.40;;;;;;;;;;5070431;28;20037;-60
2022/08/08 11:34:41;;;;;;;36.35;2.90;;;;;;;;;;5071228;28;20435;-60
2022/08/08 11:37:27;;;;;;;42.55;3.42;;;;;;;;;;5069860;28;20063;-60
2022/08/08 11:40:14;;;;;;;37.70;2.75;;;;;;;;;;5070680;28;20044;-60
2022/08/08 11:42:49;;;;;;;23.73;2.50;;;;;;;;;;5069949;28;20502;-60
2022/08/08 11:45:19;;;;;;;50.47;3.95;;;;;;;;;;5070078;28;20033;-60
2022/08/08 11:47:48;;;;;;;27.48;2.33;;;;;;;;;;5052651;28;20490;-60
2022/08/08 11:50:31;;;;;;;62.95;3.95;;;;;;;;;;5070175;28;20513;-60
2022/08/08 11:53:01;;;;;;;82.20;5.47;;;;;;;;;;5070344;28;20592;-60
2022/08/08 11:55:34;;;;;;;129.82;8.75;;;;;;;;;;5071106;28;20048;-60
2022/08/08 11:58:09;;;;;;;57.08;4.35;;;;;;;;;;5063337;28;20040;-60
2022/08/08 12:00:44;;;;;;;29.55;2.80;;;;;;;;;;5068685;28;20051;-60
2022/08/08 12:03:15;;;;;;;74.80;5.50;;;;;;;;;;5068957;28;20041;-60
2022/08/08 12:05:46;;;;;;;59.20;4.85;;;;;;;;;;5070163;28;20040;-60
2022/08/08 12:08:13;;;;;;;96.70;7.32;;;;;;;;;;5067413;28;20047;-60
2022/08/08 12:10:49;;;;;;;41.53;3.42;;;;;;;;;;5070946;28;20076;-60
2022/08/08 12:13:22;;;;;;;25.13;2.35;;;;;;;;;;5070052;28;20522;-60
2022/08/08 12:16:15;;;;;;;57.03;4.35;;;;;;;;;;5070434;28;20141;-60
2022/08/08 12:18:43;;;;;;;38.97;2.87;;;;;;;;;;5070360;28;20647;-60
2022/08/08 12:21:22;;;;;;;42.35;3.38;;;;;;;;;;5070077;28;20036;-60
2022/08/08 12:24:11;;;;;;;58.90;4.28;;;;;;;;;;5070012;28;20039;-60
2022/08/08 12:26:43;;;;;;;32.22;3.08;;;;;;;;;;5069919;28;20101;-60
2022/08/08 12:29:24;;;;;;;27.90;2.47;;;;;;;;;;5070403;28;20136;-60
2022/08/08 12:32:10;;;;;;;59.42;4.55;;;;;;;;;;5070150;28;20044;-60
2022/08/08 12:34:43;;;;;;;45.33;3.20;;;;;;;;;;5066786;28;20037;-60
2022/08/08 12:37:25;;;;;;;49.50;3.75;;;;;;;;;;5069785;28;20052;-60
2022/08/08 12:40:11;;;;;;;46.28;3.28;;;;;;;;;;5074144;28;20045;-60
2022/08/08 12:42:48;;;;;;;29.67;2.63;;;;;;;;;;5073447;28;20041;-60
2022/08/08 12:45:16;;;;;;;32.08;2.83;;;;;;;;;;5074312;28;20036;-61
2022/08/08 12:48:04;;;;;;;37.50;3.28;;;;;;;;;;5074335;28;20044;-61
2022/08/08 12:50:55;;;;;;;58.60;3.80;;;;;;;;;;5073951;28;20040;-60
2022/08/08 12:53:23;;;;;;;39.05;3.10;;;;;;;;;;5072733;28;20041;-60
2022/08/08 12:56:03;;;;;;;63.53;4.53;;;;;;;;;;5073802;28;20036;-60
2022/08/08 12:58:45;;;;;;;44.45;3.50;;;;;;;;;;5073969;28;20459;-60
2022/08/08 13:01:12;;;;;;;98.15;6.22;;;;;;;;;;5074272;28;20129;-60
2022/08/08 13:03:46;;;;;;;57.47;4.10;;;;;;;;;;5073627;28;20121;-60
2022/08/08 13:06:18;;;;;;;253.15;17.80;;;;;;;;;;5073308;28;20060;-60
2022/08/08 13:08:46;;;;;;;40.45;2.97;;;;;;;;;;5073906;28;20047;-60
2022/08/08 13:11:23;;;;;;;47.65;4.03;;;;;;;;;;5073231;28;20094;-60
2022/08/08 13:14:00;;;;;;;91.65;6.20;;;;;;;;;;5073085;28;20094;-60
2022/08/08 13:16:30;;;;;;;28.42;2.78;;;;;;;;;;5074490;28;20047;-60
2022/08/08 13:18:57;;;;;;;68.28;5.15;;;;;;;;;;5072888;28;20040;-60
2022/08/08 13:21:43;;;;;;;12.38;1.92;;;;;;;;;;5073405;28;20072;-60
2022/08/08 13:24:29;;;;;;;64.10;4.07;;;;;;;;;;5073574;28;20039;-60
2022/08/08 13:27:17;;;;;;;55.85;4.68;;;;;;;;;;5073269;28;20044;-60
2022/08/08 13:29:56;;;;;;;36.05;3.30;;;;;;;;;;5060431;28;20745;-60
2022/08/08 13:32:24;;;;;;;66.93;5.00;;;;;;;;;;5073242;28;20442;-59
2022/08/08 13:34:53;;;;;;;200.38;13.63;;;;;;;;;;5071448;28;20043;-60
2022/08/08 13:37:19;;;;;;;72.70;5.18;;;;;;;;;;5073817;28;20128;-60
2022/08/08 13:40:06;;;;;;;73.20;5.30;;;;;;;;;;5071693;28;20040;-60
2022/08/08 13:42:33;;;;;;;20.83;2.00;;;;;;;;;;5072739;28;20037;-60
2022/08/08 13:45:00;;;;;;;43.47;3.30;;;;;;;;;;5073009;28;20559;-60
2022/08/08 13:47:30;;;;;;;47.10;3.97;;;;;;;;;;5073228;28;20047;-60
2022/08/08 13:50:02;;;;;;;83.45;5.65;;;;;;;;;;5072317;28;20091;-60
2022/08/08 13:52:49;;;;;;;198.25;12.40;;;;;;;;;;5071939;28;20044;-60
2022/08/08 13:55:24;;;;;;;31.50;3.25;;;;;;;;;;5073129;28;20044;-60
2022/08/08 13:57:55;;;;;;;47.72;3.50;;;;;;;;;;5072403;28;20449;-60
2022/08/08 14:00:40;;;;;;;23.13;2.15;;;;;;;;;;5073074;28;20506;-61
2022/08/08 14:03:11;;;;;;;53.28;3.88;;;;;;;;;;5072490;28;20047;-61
2022/08/08 14:06:10;;;;;;;34.53;2.70;;;;;;;;;;5072642;28;20082;-60
2022/08/08 14:08:56;;;;;;;53.22;4.05;;;;;;;;;;5072135;28;20402;-60
2022/08/08 14:11:25;;;;;;;15.27;1.77;;;;;;;;;;5072778;28;20064;-60
2022/08/08 14:13:53;;;;;;;35.25;3.00;;;;;;;;;;5072271;28;20049;-60
2022/08/08 14:16:26;;;;;;;48.78;3.50;;;;;;;;;;5073172;28;20152;-60
2022/08/08 14:18:55;;;;;;;50.58;3.72;;;;;;;;;;5072629;28;20041;-60
2022/08/08 14:21:30;;;;;;;273.92;20.67;;;;;;;;;;5070844;28;20041;-60
2022/08/08 14:24:05;;;;;;;70.53;6.20;;;;;;;;;;5055248;28;20068;-60
2022/08/08 14:26:40;;;;;;;36.28;4.18;;;;;;;;;;5072278;28;20127;-60
2022/08/08 14:29:17;;;;;;;63.08;4.60;;;;;;;;;;5072161;28;20066;-60
2022/08/08 14:31:54;;;;;;;101.45;6.93;;;;;;;;;;5069569;28;20071;-60
2022/08/08 14:34:38;;;;;;;54.22;4.32;;;;;;;;;;5071514;28;20460;-60
2022/08/08 14:37:08;;;;;;;73.50;5.88;;;;;;;;;;5071833;28;20055;-60
2022/08/08 14:39:41;;;;;;;21.20;2.30;;;;;;;;;;5071802;28;20080;-60
2022/08/08 14:42:14;;;;;;;40.10;3.72;;;;;;;;;;5071522;28;20040;-60
2022/08/08 14:44:51;;;;;;;31.13;2.65;;;;;;;;;;5072220;28;20041;-60
2022/08/08 14:47:18;;;;;;;44.92;3.38;;;;;;;;;;5071601;28;20043;-60
2022/08/08 14:49:47;;;;;;;37.63;3.13;;;;;;;;;;5070812;28;20045;-60
2022/08/08 14:52:42;;;;;;;38.00;2.88;;;;;;;;;;5072001;28;20032;-60
2022/08/08 14:55:12;;;;;;;234.20;15.30;;;;;;;;;;5072252;28;20049;-60
2022/08/08 14:57:39;;;;;;;17.98;1.67;;;;;;;;;;5070154;28;20078;-60
2022/08/08 15:00:26;;;;;;;43.83;3.53;;;;;;;;;;5070252;28;20535;-60
2022/08/08 15:03:00;;;;;;;30.05;2.80;;;;;;;;;;5071385;28;20051;-60
2022/08/08 15:05:41;;;;;;;20.48;2.20;;;;;;;;;;5071531;28;20812;-60
2022/08/08 15:08:21;;;;;;;50.47;3.85;;;;;;;;;;5070805;28;20080;-61
2022/08/08 15:11:01;;;;;;;36.63;3.13;;;;;;;;;;5071528;28;20044;-60
2022/08/08 15:13:30;;;;;;;47.15;3.88;;;;;;;;;;5071541;28;20043;-61
2022/08/08 15:16:09;;;;;;;22.10;2.25;;;;;;;;;;5070386;28;20521;-61
2022/08/08 15:18:40;;;;;;;26.13;2.13;;;;;;;;;;5071646;28;20471;-60
2022/08/08 15:21:16;;;;;;;221.93;14.95;;;;;;;;;;5071196;28;20470;-60
2022/08/08 15:23:43;;;;;;;111.78;6.72;;;;;;;;;;5072175;28;20050;-60
2022/08/08 15:26:17;;;;;;;85.22;5.97;;;;;;;;;;5058488;28;20048;-60
2022/08/08 15:28:43;;;;;;;38.47;3.28;;;;;;;;;;5071342;28;20452;-60
2022/08/08 15:31:10;;;;;;;26.05;2.42;;;;;;;;;;5070756;28;20036;-60
2022/08/08 15:33:57;;;;;;;41.30;3.25;;;;;;;;;;5070475;28;20036;-60